createdAt,value
2019-02-28T00:01:24.601Z,7.71
2019-02-28T00:02:24.653Z,7.71
2019-02-28T00:04:17.514Z,7.75
2019-02-28T00:05:17.520Z,7.75
2019-02-28T00:07:10.420Z,7.86
2019-02-28T00:08:10.431Z,7.83
2019-02-28T00:10:03.337Z,7.83
2019-02-28T00:11:05.117Z,7.86
2019-02-28T00:12:56.240Z,7.82
2019-02-28T00:13:56.637Z,7.87
2019-02-28T00:15:49.150Z,7.83
2019-02-28T00:16:49.193Z,7.83
2019-02-28T00:18:42.061Z,7.83
2019-02-28T00:19:42.067Z,7.83
2019-02-28T00:21:37.340Z,7.80
2019-02-28T00:22:34.973Z,7.82
2019-02-28T00:24:30.055Z,7.79
2019-02-28T00:25:27.883Z,7.69
2019-02-28T00:27:21.954Z,7.71
2019-02-28T00:28:23.135Z,7.75
2019-02-28T00:30:13.707Z,7.72
2019-02-28T00:31:15.276Z,7.64
2019-02-28T00:33:06.624Z,7.74
2019-02-28T00:34:06.610Z,7.67
2019-02-28T00:37:31.106Z,7.75
2019-02-28T00:38:31.111Z,7.75
2019-02-28T00:40:24.017Z,7.72
2019-02-28T00:41:24.023Z,7.72
2019-02-28T00:43:16.917Z,7.71
2019-02-28T00:44:16.929Z,7.71
2019-02-28T00:46:09.989Z,7.82
2019-02-28T00:47:09.835Z,7.79
2019-02-28T00:49:02.755Z,7.69
2019-02-28T00:50:02.762Z,7.82
2019-02-28T00:51:55.672Z,7.82
2019-02-28T00:52:55.666Z,7.72
2019-02-28T00:54:48.572Z,7.86
2019-02-28T00:55:48.575Z,7.85
2019-02-28T00:57:41.480Z,7.80
2019-02-28T00:58:41.486Z,7.82
2019-02-28T01:00:36.997Z,7.75
2019-02-28T01:01:34.393Z,7.71
2019-02-28T01:03:27.619Z,7.83
2019-02-28T01:04:29.843Z,7.75
2019-02-28T01:06:20.210Z,7.86
2019-02-28T01:07:20.215Z,7.75
2019-02-28T01:09:13.121Z,7.74
2019-02-28T01:10:13.123Z,7.80
2019-02-28T01:12:06.027Z,7.69
2019-02-28T01:13:06.035Z,7.75
2019-02-28T01:14:58.936Z,7.72
2019-02-28T01:15:58.941Z,7.77
2019-02-28T01:17:51.857Z,7.74
2019-02-28T01:18:51.850Z,7.75
2019-02-28T01:20:49.941Z,7.74
2019-02-28T01:21:44.762Z,7.64
2019-02-28T01:23:37.665Z,7.75
2019-02-28T01:24:37.683Z,7.77
2019-02-28T01:26:30.631Z,7.80
2019-02-28T01:27:30.583Z,7.80
2019-02-28T01:29:23.508Z,7.80
2019-02-28T01:30:23.489Z,7.79
2019-02-28T01:32:16.385Z,7.72
2019-02-28T01:33:16.398Z,7.74
2019-02-28T01:35:09.322Z,7.68
2019-02-28T01:36:12.129Z,7.71
2019-02-28T01:38:02.207Z,7.67
2019-02-28T01:39:02.218Z,7.68
2019-02-28T01:40:55.129Z,7.80
2019-02-28T01:41:55.126Z,7.86
2019-02-28T01:43:48.518Z,7.82
2019-02-28T01:44:48.528Z,7.71
2019-02-28T01:46:41.437Z,7.69
2019-02-28T01:47:41.437Z,7.71
2019-02-28T01:49:34.346Z,7.69
2019-02-28T01:50:34.348Z,7.80
2019-02-28T01:52:27.246Z,7.77
2019-02-28T01:53:27.255Z,7.71
2019-02-28T01:55:20.159Z,7.72
2019-02-28T01:56:20.163Z,7.74
2019-02-28T01:58:16.436Z,7.75
2019-02-28T01:59:13.070Z,7.63
2019-02-28T02:01:05.978Z,7.63
2019-02-28T02:02:06.961Z,7.69
2019-02-28T02:03:58.877Z,7.58
2019-02-28T02:04:58.887Z,7.57
2019-02-28T02:06:51.794Z,7.67
2019-02-28T02:07:51.796Z,7.48
2019-02-28T02:09:46.133Z,7.55
2019-02-28T02:10:44.701Z,7.52
2019-02-28T02:12:37.600Z,7.55
2019-02-28T02:13:37.612Z,7.63
2019-02-28T02:15:30.544Z,7.50
2019-02-28T02:16:30.554Z,7.50
2019-02-28T02:18:23.447Z,7.52
2019-02-28T02:19:23.464Z,7.53
2019-02-28T02:21:16.372Z,7.55
2019-02-28T02:22:16.370Z,7.55
2019-02-28T02:24:09.268Z,7.52
2019-02-28T02:25:09.277Z,7.57
2019-02-28T02:27:02.187Z,7.53
2019-02-28T02:28:02.189Z,7.55
2019-02-28T02:29:55.092Z,7.50
2019-02-28T02:30:55.096Z,7.50
2019-02-28T02:32:47.996Z,7.49
2019-02-28T02:33:52.526Z,7.48
2019-02-28T02:35:42.648Z,7.49
2019-02-28T02:36:40.916Z,7.50
2019-02-28T02:38:40.117Z,7.49
2019-02-28T02:39:33.821Z,7.49
2019-02-28T02:41:26.728Z,7.53
2019-02-28T02:42:26.734Z,7.53
2019-02-28T02:44:19.628Z,7.49
2019-02-28T02:45:19.640Z,7.52
2019-02-28T02:47:12.577Z,7.50
2019-02-28T02:48:12.547Z,7.48
2019-02-28T02:50:05.458Z,7.48
2019-02-28T02:51:10.685Z,7.46
2019-02-28T02:53:04.903Z,7.50
2019-02-28T02:53:58.358Z,7.43
2019-02-28T02:55:51.262Z,7.50
2019-02-28T02:56:51.266Z,7.45
2019-02-28T02:58:44.187Z,7.42
2019-02-28T02:59:44.176Z,7.34
2019-02-28T03:01:37.089Z,7.34
2019-02-28T03:02:37.086Z,7.35
2019-02-28T03:04:30.000Z,7.30
2019-02-28T03:05:35.327Z,7.27
2019-02-28T03:07:24.566Z,7.31
2019-02-28T03:08:22.927Z,7.32
2019-02-28T03:10:18.059Z,7.37
2019-02-28T03:11:15.829Z,7.31
2019-02-28T03:13:08.713Z,7.34
2019-02-28T03:14:08.719Z,7.28
2019-02-28T03:16:01.626Z,7.30
2019-02-28T03:17:01.627Z,7.24
2019-02-28T03:18:58.014Z,7.13
2019-02-28T03:19:54.539Z,7.09
2019-02-28T03:21:50.986Z,7.07
2019-02-28T03:22:47.446Z,6.99
2019-02-28T03:24:40.339Z,6.99
2019-02-28T03:25:40.351Z,6.81
2019-02-28T03:27:33.253Z,6.70
2019-02-28T03:28:33.330Z,6.70
2019-02-28T03:30:31.037Z,6.59
2019-02-28T03:31:26.163Z,6.58
2019-02-28T03:33:27.054Z,6.36
2019-02-28T03:34:19.069Z,6.22
2019-02-28T03:36:15.582Z,6.15
2019-02-28T03:37:11.974Z,6.12
2019-02-28T03:39:04.867Z,6.03
2019-02-28T03:40:05.333Z,6.01
2019-02-28T03:41:57.786Z,5.99
2019-02-28T03:43:05.516Z,5.97
2019-02-28T03:44:56.696Z,5.90
2019-02-28T03:45:50.691Z,5.99
2019-02-28T03:47:43.608Z,5.90
2019-02-28T03:48:43.598Z,5.91
2019-02-28T03:50:36.546Z,5.85
2019-02-28T03:51:36.506Z,5.90
2019-02-28T03:53:29.412Z,5.91
2019-02-28T03:54:30.077Z,5.93
2019-02-28T03:56:22.396Z,5.90
2019-02-28T03:57:27.756Z,5.85
2019-02-28T03:59:18.859Z,5.93
2019-02-28T04:00:15.245Z,5.96
2019-02-28T04:02:08.634Z,5.93
2019-02-28T04:03:08.639Z,5.96
2019-02-28T04:05:01.534Z,6.00
2019-02-28T04:06:03.895Z,6.06
2019-02-28T04:07:55.104Z,6.12
2019-02-28T04:08:54.458Z,6.12
2019-02-28T04:10:47.385Z,6.14
2019-02-28T04:11:47.384Z,6.15
2019-02-28T04:13:40.758Z,6.11
2019-02-28T04:14:40.769Z,6.21
2019-02-28T04:16:33.673Z,6.22
2019-02-28T04:17:33.675Z,6.21
2019-02-28T04:19:26.572Z,6.27
2019-02-28T04:20:26.590Z,6.15
2019-02-28T04:22:23.096Z,6.21
2019-02-28T04:23:19.490Z,6.19
2019-02-28T04:25:12.534Z,6.14
2019-02-28T04:26:12.533Z,6.12
2019-02-28T04:28:05.935Z,6.06
2019-02-28T04:29:05.939Z,6.01
2019-02-28T04:30:58.836Z,5.90
2019-02-28T04:31:58.848Z,5.90
2019-02-28T04:33:51.761Z,5.91
2019-02-28T04:34:51.755Z,5.93
2019-02-28T04:36:44.689Z,5.85
2019-02-28T04:37:47.007Z,5.85
2019-02-28T04:39:37.585Z,5.83
2019-02-28T04:40:37.594Z,5.86
2019-02-28T04:42:30.552Z,5.85
2019-02-28T04:43:30.570Z,5.81
2019-02-28T04:45:26.218Z,5.78
2019-02-28T04:46:23.454Z,5.76
2019-02-28T04:48:16.361Z,5.78
2019-02-28T04:49:21.400Z,5.83
2019-02-28T04:51:09.259Z,5.78
2019-02-28T04:52:11.843Z,5.79
2019-02-28T04:54:02.170Z,5.82
2019-02-28T04:55:02.820Z,5.78
2019-02-28T04:56:55.069Z,5.83
2019-02-28T04:57:55.073Z,5.78
2019-02-28T04:59:47.976Z,5.79
2019-02-28T05:00:47.976Z,5.85
2019-02-28T05:02:40.880Z,5.91
2019-02-28T05:03:40.881Z,5.86
2019-02-28T05:05:33.776Z,5.85
2019-02-28T05:06:33.786Z,5.91
2019-02-28T05:08:26.696Z,5.93
2019-02-28T05:09:26.698Z,5.86
2019-02-28T05:11:19.586Z,5.90
2019-02-28T05:12:19.596Z,5.86
2019-02-28T05:14:12.495Z,5.94
2019-02-28T05:15:12.498Z,5.94
2019-02-28T05:17:05.408Z,6.00
2019-02-28T05:18:05.406Z,5.94
2019-02-28T05:19:58.301Z,6.01
2019-02-28T05:20:58.307Z,5.91
2019-02-28T05:22:51.217Z,5.96
2019-02-28T05:23:51.214Z,6.00
2019-02-28T05:25:44.112Z,5.99
2019-02-28T05:26:44.120Z,5.93
2019-02-28T05:28:40.333Z,5.99
2019-02-28T05:29:37.026Z,6.01
2019-02-28T05:31:29.925Z,6.08
2019-02-28T05:32:32.149Z,6.01
2019-02-28T05:34:22.841Z,6.03
2019-02-28T05:35:26.657Z,6.11
2019-02-28T05:37:15.751Z,6.06
2019-02-28T05:38:20.707Z,6.17
2019-02-28T05:40:08.649Z,6.18
2019-02-28T05:41:08.661Z,6.15
2019-02-28T05:43:02.058Z,6.25
2019-02-28T05:44:03.333Z,6.18
2019-02-28T05:45:54.957Z,6.22
2019-02-28T05:46:57.623Z,6.18
2019-02-28T05:48:47.874Z,6.22
2019-02-28T05:49:47.878Z,6.17
2019-02-28T05:51:40.769Z,6.15
2019-02-28T05:52:40.777Z,6.19
2019-02-28T05:54:33.722Z,6.22
2019-02-28T05:55:33.681Z,6.28
2019-02-28T05:57:26.590Z,6.30
2019-02-28T05:58:26.593Z,6.25
2019-02-28T06:00:19.486Z,6.27
2019-02-28T06:01:19.501Z,6.28
2019-02-28T06:03:12.403Z,6.31
2019-02-28T06:04:12.402Z,6.27
2019-02-28T06:06:05.306Z,6.33
2019-02-28T06:07:05.318Z,6.31
2019-02-28T06:08:58.215Z,6.34
2019-02-28T06:09:58.216Z,6.31
2019-02-28T06:11:51.130Z,6.33
2019-02-28T06:12:51.139Z,6.33
2019-02-28T06:14:44.564Z,6.31
2019-02-28T06:15:44.611Z,6.36
2019-02-28T06:17:37.452Z,6.46
2019-02-28T06:18:37.458Z,6.30
2019-02-28T06:20:30.851Z,6.36
2019-02-28T06:21:30.859Z,6.38
2019-02-28T06:23:23.794Z,6.33
2019-02-28T06:24:23.758Z,6.34
2019-02-28T06:26:17.177Z,6.34
2019-02-28T06:27:17.189Z,6.33
2019-02-28T06:29:11.099Z,6.34
2019-02-28T06:30:11.102Z,6.33
2019-02-28T06:32:03.993Z,6.41
2019-02-28T06:33:04.033Z,6.34
2019-02-28T06:34:56.910Z,6.34
2019-02-28T06:35:56.923Z,6.18
2019-02-28T06:37:49.815Z,6.18
2019-02-28T06:38:51.516Z,6.18
2019-02-28T06:40:42.747Z,6.17
2019-02-28T06:41:42.760Z,6.19
2019-02-28T06:43:35.666Z,6.21
2019-02-28T06:44:35.700Z,6.22
2019-02-28T06:46:28.573Z,6.22
2019-02-28T06:47:28.575Z,6.38
2019-02-28T06:49:21.492Z,6.38
2019-02-28T06:50:21.491Z,6.31
2019-02-28T06:52:14.386Z,6.51
2019-02-28T06:53:14.396Z,6.46
2019-02-28T06:55:07.825Z,6.58
2019-02-28T06:56:07.815Z,6.58
2019-02-28T06:58:00.710Z,6.61
2019-02-28T06:59:00.721Z,6.67
2019-02-28T07:00:53.633Z,6.64
2019-02-28T07:01:57.483Z,6.70
2019-02-28T07:03:53.251Z,6.81
2019-02-28T07:04:49.450Z,6.81
2019-02-28T07:06:39.461Z,6.89
2019-02-28T07:07:39.470Z,6.88
2019-02-28T07:09:33.593Z,6.97
2019-02-28T07:10:32.383Z,6.94
2019-02-28T07:12:29.105Z,6.89
2019-02-28T07:13:25.306Z,7.02
2019-02-28T07:15:23.289Z,6.98
2019-02-28T07:16:18.217Z,6.89
2019-02-28T07:18:11.110Z,7.09
2019-02-28T07:19:11.122Z,6.92
2019-02-28T07:21:04.026Z,7.07
2019-02-28T07:22:04.028Z,7.09
2019-02-28T07:23:57.445Z,7.12
2019-02-28T07:24:57.448Z,7.23
2019-02-28T07:26:52.202Z,7.25
2019-02-28T07:27:50.357Z,7.32
2019-02-28T07:29:43.589Z,7.45
2019-02-28T07:30:43.266Z,7.43
2019-02-28T07:32:36.163Z,7.46
2019-02-28T07:33:36.173Z,7.48
2019-02-28T07:35:32.696Z,7.61
2019-02-28T07:36:29.081Z,7.64
2019-02-28T07:38:21.982Z,7.77
2019-02-28T07:39:21.990Z,7.86
2019-02-28T07:41:14.893Z,7.89
2019-02-28T07:42:14.897Z,7.93
2019-02-28T07:44:07.814Z,7.93
2019-02-28T07:45:07.809Z,7.95
2019-02-28T07:47:01.202Z,8.04
2019-02-28T07:48:01.211Z,8.07
2019-02-28T07:49:54.139Z,8.11
2019-02-28T07:50:54.152Z,8.23
2019-02-28T07:52:47.045Z,8.25
2019-02-28T07:53:47.057Z,8.30
2019-02-28T07:55:39.977Z,8.43
2019-02-28T07:56:43.140Z,8.33
2019-02-28T07:58:34.361Z,8.37
2019-02-28T07:59:40.941Z,8.36
2019-02-28T08:01:27.763Z,8.37
2019-02-28T08:02:27.294Z,8.50
2019-02-28T08:04:20.194Z,8.50
2019-02-28T08:05:20.196Z,8.58
2019-02-28T08:07:14.723Z,8.52
2019-02-28T08:08:13.110Z,8.48
2019-02-28T08:10:06.019Z,8.63
2019-02-28T08:11:06.020Z,8.70
2019-02-28T08:13:03.081Z,8.63
2019-02-28T08:13:59.928Z,8.61
2019-02-28T08:15:53.342Z,8.70
2019-02-28T08:16:52.837Z,8.86
2019-02-28T08:18:45.743Z,8.86
2019-02-28T08:19:45.758Z,8.91
2019-02-28T08:21:43.917Z,8.91
2019-02-28T08:22:38.664Z,8.92
2019-02-28T08:24:31.569Z,9.01
2019-02-28T08:25:31.574Z,9.05
2019-02-28T08:27:25.421Z,9.15
2019-02-28T08:28:24.487Z,9.24
2019-02-28T08:30:19.417Z,9.24
2019-02-28T08:31:17.551Z,9.33
2019-02-28T08:33:10.450Z,9.47
2019-02-28T08:34:10.462Z,9.54
2019-02-28T08:36:05.252Z,9.51
2019-02-28T08:37:03.379Z,9.50
2019-02-28T08:38:56.280Z,9.60
2019-02-28T08:39:56.291Z,9.64
2019-02-28T08:41:50.191Z,9.61
2019-02-28T08:42:50.200Z,9.53
2019-02-28T08:44:43.612Z,9.56
2019-02-28T08:45:43.616Z,9.68
2019-02-28T08:47:36.517Z,9.69
2019-02-28T08:48:36.528Z,9.78
2019-02-28T08:50:29.433Z,9.79
2019-02-28T08:51:31.019Z,9.87
2019-02-28T08:53:22.345Z,9.94
2019-02-28T08:54:26.313Z,10.02
2019-02-28T08:56:15.274Z,9.89
2019-02-28T08:57:15.277Z,9.78
2019-02-28T08:59:11.840Z,9.81
2019-02-28T09:00:08.184Z,9.78
2019-02-28T09:02:01.092Z,9.81
2019-02-28T09:03:01.184Z,9.78
2019-02-28T09:04:54.006Z,9.91
2019-02-28T09:05:54.010Z,9.99
2019-02-28T09:07:50.722Z,10.02
2019-02-28T09:08:46.922Z,10.08
2019-02-28T09:10:39.835Z,10.15
2019-02-28T09:11:39.840Z,10.22
2019-02-28T09:13:32.739Z,10.34
2019-02-28T09:14:32.751Z,10.45
2019-02-28T09:16:25.661Z,10.53
2019-02-28T09:17:25.680Z,10.64
2019-02-28T09:19:18.570Z,10.81
2019-02-28T09:20:18.584Z,10.79
2019-02-28T09:22:11.499Z,10.96
2019-02-28T09:23:11.563Z,11.02
2019-02-28T09:25:04.407Z,11.04
2019-02-28T09:26:04.440Z,11.04
2019-02-28T09:27:57.314Z,11.09
2019-02-28T09:28:57.326Z,11.18
2019-02-28T09:30:50.239Z,11.19
2019-02-28T09:31:50.247Z,11.28
2019-02-28T09:33:43.149Z,11.24
2019-02-28T09:34:43.177Z,11.35
2019-02-28T09:36:36.071Z,11.36
2019-02-28T09:37:36.077Z,11.36
2019-02-28T09:39:28.980Z,11.37
2019-02-28T09:40:29.435Z,11.42
2019-02-28T09:42:21.906Z,11.32
2019-02-28T09:43:23.850Z,11.28
2019-02-28T09:45:14.821Z,11.27
2019-02-28T09:46:15.720Z,11.19
2019-02-28T09:48:07.734Z,11.28
2019-02-28T09:49:12.070Z,11.42
2019-02-28T09:51:00.660Z,11.51
2019-02-28T09:52:03.180Z,11.61
2019-02-28T09:53:53.572Z,11.65
2019-02-28T09:54:56.346Z,11.79
2019-02-28T09:56:46.497Z,11.94
2019-02-28T09:57:46.504Z,12.01
2019-02-28T09:59:39.424Z,11.98
2019-02-28T10:00:39.440Z,12.12
2019-02-28T10:02:32.347Z,12.17
2019-02-28T10:03:32.356Z,12.16
2019-02-28T10:05:25.270Z,12.12
2019-02-28T10:06:25.275Z,12.12
2019-02-28T10:08:18.176Z,12.27
2019-02-28T10:09:18.193Z,12.34
2019-02-28T10:11:11.111Z,12.47
2019-02-28T10:12:11.134Z,12.62
2019-02-28T10:14:04.043Z,12.75
2019-02-28T10:15:07.276Z,12.79
2019-02-28T10:16:56.946Z,12.92
2019-02-28T10:17:56.958Z,12.89
2019-02-28T10:19:52.351Z,12.92
2019-02-28T10:20:49.872Z,12.97
2019-02-28T10:22:44.375Z,13.05
2019-02-28T10:23:42.919Z,13.08
2019-02-28T10:25:40.094Z,13.11
2019-02-28T10:26:35.715Z,13.29
2019-02-28T10:28:28.622Z,13.33
2019-02-28T10:29:28.631Z,13.30
2019-02-28T10:31:35.228Z,13.14
2019-02-28T10:32:21.552Z,12.95
2019-02-28T10:34:14.455Z,13.01
2019-02-28T10:35:14.468Z,13.03
2019-02-28T10:37:07.393Z,12.90
2019-02-28T10:38:07.396Z,12.85
2019-02-28T10:40:00.856Z,12.75
2019-02-28T10:41:00.347Z,12.75
2019-02-28T10:42:53.267Z,12.57
2019-02-28T10:43:55.836Z,12.68
2019-02-28T10:45:46.233Z,12.74
2019-02-28T10:46:46.191Z,12.87
2019-02-28T10:48:50.238Z,13.01
2019-02-28T10:49:39.112Z,13.17
2019-02-28T10:51:32.037Z,13.41
2019-02-28T10:52:32.040Z,13.30
2019-02-28T10:54:24.955Z,13.45
2019-02-28T10:55:24.963Z,13.52
2019-02-28T10:57:17.878Z,13.69
2019-02-28T10:58:17.887Z,13.63
2019-02-28T11:00:10.797Z,13.62
2019-02-28T11:01:10.814Z,13.66
2019-02-28T11:03:03.746Z,13.75
2019-02-28T11:04:04.523Z,13.87
2019-02-28T11:05:56.639Z,14.04
2019-02-28T11:06:59.359Z,14.10
2019-02-28T11:08:49.571Z,14.12
2019-02-28T11:09:49.577Z,14.17
2019-02-28T11:11:45.547Z,14.25
2019-02-28T11:12:42.502Z,14.35
2019-02-28T11:14:38.370Z,14.36
2019-02-28T11:15:35.424Z,14.43
2019-02-28T11:17:30.407Z,14.36
2019-02-28T11:18:28.368Z,14.42
2019-02-28T11:20:22.359Z,14.40
2019-02-28T11:21:21.282Z,14.42
2019-02-28T11:23:15.682Z,14.28
2019-02-28T11:24:14.206Z,14.29
2019-02-28T11:26:09.517Z,14.20
2019-02-28T11:27:07.132Z,14.04
2019-02-28T11:29:02.870Z,13.92
2019-02-28T11:30:00.166Z,13.87
2019-02-28T11:31:54.286Z,14.02
2019-02-28T11:32:52.986Z,14.07
2019-02-28T11:34:48.672Z,13.99
2019-02-28T11:35:46.907Z,14.06
2019-02-28T11:37:42.314Z,14.06
2019-02-28T11:38:40.327Z,13.99
2019-02-28T11:40:33.236Z,14.22
2019-02-28T11:41:33.248Z,14.20
2019-02-28T11:43:26.820Z,14.18
2019-02-28T11:44:26.176Z,14.28
2019-02-28T11:46:19.084Z,14.33
2019-02-28T11:47:19.102Z,14.27
2019-02-28T11:49:13.633Z,14.40
2019-02-28T11:50:12.023Z,14.42
2019-02-28T11:52:04.947Z,14.62
2019-02-28T11:53:05.975Z,14.62
2019-02-28T11:54:57.861Z,14.46
2019-02-28T11:55:57.876Z,14.35
2019-02-28T11:57:50.794Z,14.35
2019-02-28T11:58:51.743Z,14.40
2019-02-28T12:00:43.710Z,14.55
2019-02-28T12:01:47.486Z,14.64
2019-02-28T12:03:36.693Z,14.84
2019-02-28T12:04:37.506Z,14.92
2019-02-28T12:06:29.556Z,14.96
2019-02-28T12:07:34.519Z,14.95
2019-02-28T12:09:22.488Z,15.13
2019-02-28T12:10:22.501Z,15.19
2019-02-28T12:12:15.412Z,15.23
2019-02-28T12:13:16.445Z,15.19
2019-02-28T12:15:08.333Z,15.20
2019-02-28T12:16:08.345Z,15.09
2019-02-28T12:18:04.701Z,15.06
2019-02-28T12:19:01.271Z,15.13
2019-02-28T12:20:54.182Z,15.13
2019-02-28T12:21:54.207Z,15.10
2019-02-28T12:23:47.115Z,15.34
2019-02-28T12:24:47.121Z,15.46
2019-02-28T12:26:40.032Z,15.59
2019-02-28T12:27:40.049Z,15.57
2019-02-28T12:29:32.963Z,15.47
2019-02-28T12:30:32.972Z,15.53
2019-02-28T12:32:25.892Z,15.44
2019-02-28T12:33:25.902Z,15.43
2019-02-28T12:35:18.808Z,15.46
2019-02-28T12:36:18.823Z,15.36
2019-02-28T12:38:11.736Z,15.35
2019-02-28T12:39:11.746Z,15.34
2019-02-28T12:41:04.686Z,15.21
2019-02-28T12:42:04.673Z,15.19
2019-02-28T12:43:58.091Z,15.06
2019-02-28T12:44:58.200Z,15.03
2019-02-28T12:46:51.004Z,14.99
2019-02-28T12:47:51.023Z,14.95
2019-02-28T12:49:43.936Z,14.91
2019-02-28T12:50:43.943Z,14.84
2019-02-28T12:52:36.870Z,14.73
2019-02-28T12:53:36.868Z,14.62
2019-02-28T12:55:29.778Z,14.46
2019-02-28T12:56:29.795Z,14.46
2019-02-28T12:58:22.753Z,14.39
2019-02-28T12:59:22.718Z,14.43
2019-02-28T13:01:15.636Z,14.29
2019-02-28T13:02:15.643Z,14.43
2019-02-28T13:04:08.563Z,14.57
2019-02-28T13:05:14.063Z,14.57
2019-02-28T13:07:01.478Z,14.50
2019-02-28T13:08:01.490Z,14.55
2019-02-28T13:09:54.411Z,14.58
2019-02-28T13:10:54.419Z,14.68
2019-02-28T13:12:48.938Z,14.75
2019-02-28T13:13:47.341Z,14.77
2019-02-28T13:15:40.251Z,14.77
2019-02-28T13:16:40.267Z,14.80
2019-02-28T13:18:33.183Z,14.95
2019-02-28T13:19:33.190Z,14.96
2019-02-28T13:21:26.104Z,15.01
2019-02-28T13:22:26.119Z,15.13
2019-02-28T13:24:19.042Z,15.31
2019-02-28T13:25:19.340Z,15.20
2019-02-28T13:27:11.957Z,15.29
2019-02-28T13:28:11.978Z,15.31
2019-02-28T13:30:05.384Z,15.38
2019-02-28T13:31:04.896Z,15.41
2019-02-28T13:32:57.838Z,15.60
2019-02-28T13:33:57.847Z,15.67
2019-02-28T13:35:50.773Z,15.84
2019-02-28T13:36:54.211Z,15.92
2019-02-28T13:38:43.701Z,15.87
2019-02-28T13:39:44.794Z,15.78
2019-02-28T13:41:36.628Z,15.90
2019-02-28T13:42:40.728Z,16.01
2019-02-28T13:44:31.576Z,16.21
2019-02-28T13:45:29.553Z,16.21
2019-02-28T13:47:22.468Z,16.38
2019-02-28T13:48:26.221Z,16.57
2019-02-28T13:50:17.356Z,16.56
2019-02-28T13:51:15.426Z,16.45
2019-02-28T13:53:17.239Z,16.39
2019-02-28T13:54:08.343Z,16.42
2019-02-28T13:56:01.269Z,16.58
2019-02-28T13:57:01.277Z,16.48
2019-02-28T13:58:57.294Z,16.46
2019-02-28T13:59:54.218Z,16.33
2019-02-28T14:01:47.624Z,16.27
2019-02-28T14:02:47.641Z,16.20
2019-02-28T14:04:40.553Z,16.17
2019-02-28T14:05:41.556Z,16.21
2019-02-28T14:07:34.635Z,16.07
2019-02-28T14:08:33.999Z,16.12
2019-02-28T14:10:29.592Z,16.09
2019-02-28T14:11:26.922Z,15.94
2019-02-28T14:13:19.834Z,16.00
2019-02-28T14:14:19.868Z,16.07
2019-02-28T14:16:12.770Z,15.94
2019-02-28T14:17:12.781Z,15.90
2019-02-28T14:19:06.691Z,15.82
2019-02-28T14:20:06.703Z,15.80
2019-02-28T14:21:59.612Z,15.83
2019-02-28T14:22:59.645Z,15.72
2019-02-28T14:24:53.038Z,15.89
2019-02-28T14:25:53.049Z,15.86
2019-02-28T14:27:45.961Z,15.97
2019-02-28T14:28:45.982Z,15.90
2019-02-28T14:30:38.890Z,15.82
2019-02-28T14:31:38.910Z,15.71
2019-02-28T14:33:32.313Z,15.86
2019-02-28T14:34:32.327Z,15.90
2019-02-28T14:36:25.241Z,15.65
2019-02-28T14:37:25.319Z,15.69
2019-02-28T14:39:19.211Z,15.68
2019-02-28T14:40:19.204Z,15.82
2019-02-28T14:42:12.141Z,15.82
2019-02-28T14:43:12.174Z,15.59
2019-02-28T14:45:07.121Z,15.78
2019-02-28T14:46:05.167Z,15.68
2019-02-28T14:48:00.891Z,15.75
2019-02-28T14:48:58.031Z,15.65
2019-02-28T14:50:53.925Z,15.62
2019-02-28T14:51:50.963Z,15.59
2019-02-28T14:53:45.398Z,15.59
2019-02-28T14:54:43.885Z,15.69
2019-02-28T14:56:39.586Z,15.57
2019-02-28T14:57:36.808Z,15.60
2019-02-28T14:59:31.238Z,15.64
2019-02-28T15:00:29.739Z,15.67
2019-02-28T15:02:27.912Z,15.64
2019-02-28T15:03:22.659Z,15.65
2019-02-28T15:05:16.698Z,15.72
2019-02-28T15:06:15.926Z,15.72
2019-02-28T15:08:11.777Z,15.68
2019-02-28T15:09:08.850Z,15.62
2019-02-28T15:11:01.767Z,15.57
2019-02-28T15:12:01.773Z,15.57
2019-02-28T15:13:54.706Z,15.60
2019-02-28T15:14:54.722Z,15.59
2019-02-28T15:16:47.636Z,15.54
2019-02-28T15:17:47.642Z,15.57
2019-02-28T15:19:40.566Z,15.44
2019-02-28T15:20:40.573Z,15.43
2019-02-28T15:22:33.482Z,15.38
2019-02-28T15:23:34.371Z,15.41
2019-02-28T15:25:26.431Z,15.36
2019-02-28T15:26:29.282Z,15.39
2019-02-28T15:28:19.342Z,15.36
2019-02-28T15:29:20.189Z,15.17
2019-02-28T15:31:13.666Z,15.25
2019-02-28T15:32:14.193Z,15.28
2019-02-28T15:34:05.557Z,15.32
2019-02-28T15:35:05.198Z,15.21
2019-02-28T15:36:59.170Z,15.36
2019-02-28T15:37:58.114Z,15.34
2019-02-28T15:39:51.037Z,15.36
2019-02-28T15:40:51.066Z,15.41
2019-02-28T15:42:44.134Z,15.41
2019-02-28T15:43:43.977Z,15.29
2019-02-28T15:45:37.377Z,15.34
2019-02-28T15:46:36.896Z,15.25
2019-02-28T15:48:31.384Z,15.11
2019-02-28T15:49:29.823Z,15.13
2019-02-28T15:51:25.754Z,15.06
2019-02-28T15:52:22.749Z,14.96
2019-02-28T15:54:15.657Z,14.95
2019-02-28T15:55:15.905Z,14.98
2019-02-28T15:57:08.584Z,14.86
2019-02-28T15:58:08.595Z,14.86
2019-02-28T16:00:01.524Z,14.83
2019-02-28T16:01:01.518Z,14.78
2019-02-28T16:02:54.431Z,14.65
2019-02-28T16:03:54.439Z,14.64
2019-02-28T16:05:47.358Z,14.77
2019-02-28T16:06:47.366Z,14.88
2019-02-28T16:08:41.945Z,14.77
2019-02-28T16:09:40.284Z,14.72
2019-02-28T16:11:33.196Z,14.65
2019-02-28T16:12:33.207Z,14.62
2019-02-28T16:14:26.118Z,14.65
2019-02-28T16:15:26.131Z,14.72
2019-02-28T16:17:19.043Z,14.65
2019-02-28T16:18:19.054Z,14.70
2019-02-28T16:20:11.969Z,14.69
2019-02-28T16:21:11.976Z,14.65
2019-02-28T16:23:04.885Z,14.57
2019-02-28T16:24:05.222Z,14.61
2019-02-28T16:25:57.816Z,14.65
2019-02-28T16:26:58.057Z,14.73
2019-02-28T16:28:50.728Z,14.65
2019-02-28T16:29:52.356Z,14.55
2019-02-28T16:31:43.654Z,14.60
2019-02-28T16:32:45.637Z,14.57
2019-02-28T16:34:38.768Z,14.51
2019-02-28T16:35:36.589Z,14.54
2019-02-28T16:37:32.350Z,14.55
2019-02-28T16:38:29.510Z,14.51
2019-02-28T16:40:26.296Z,14.54
2019-02-28T16:41:22.428Z,14.55
2019-02-28T16:43:17.401Z,14.70
2019-02-28T16:44:15.377Z,14.64
2019-02-28T16:46:08.265Z,14.55
2019-02-28T16:47:08.273Z,14.46
2019-02-28T16:49:01.180Z,14.40
2019-02-28T16:50:01.195Z,14.40
2019-02-28T16:51:54.107Z,14.27
2019-02-28T16:52:54.116Z,14.27
2019-02-28T16:54:47.024Z,14.17
2019-02-28T16:55:47.034Z,14.21
2019-02-28T16:57:39.954Z,14.04
2019-02-28T16:58:39.957Z,13.97
2019-02-28T17:00:32.888Z,13.95
2019-02-28T17:01:32.876Z,13.89
2019-02-28T17:03:25.781Z,13.91
2019-02-28T17:04:25.794Z,13.77
2019-02-28T17:06:18.707Z,13.71
2019-02-28T17:07:18.713Z,13.77
2019-02-28T17:09:13.222Z,13.75
2019-02-28T17:10:11.635Z,13.75
2019-02-28T17:12:04.547Z,13.66
2019-02-28T17:13:04.555Z,13.66
2019-02-28T17:14:58.455Z,13.59
2019-02-28T17:16:01.403Z,13.51
2019-02-28T17:17:51.383Z,13.49
2019-02-28T17:18:53.602Z,13.42
2019-02-28T17:20:44.314Z,13.23
2019-02-28T17:21:44.311Z,13.14
2019-02-28T17:23:38.181Z,13.14
2019-02-28T17:24:37.231Z,13.10
2019-02-28T17:26:31.058Z,13.01
2019-02-28T17:27:30.151Z,13.05
2019-02-28T17:29:25.188Z,13.04
2019-02-28T17:30:23.069Z,13.12
2019-02-28T17:32:15.981Z,13.14
2019-02-28T17:33:15.988Z,13.19
2019-02-28T17:35:08.894Z,13.23
2019-02-28T17:36:11.812Z,13.12
2019-02-28T17:38:01.818Z,13.12
2019-02-28T17:39:01.823Z,13.00
2019-02-28T17:40:54.731Z,13.12
2019-02-28T17:41:54.749Z,13.03
2019-02-28T17:43:47.656Z,13.05
2019-02-28T17:44:47.664Z,13.20
2019-02-28T17:46:40.581Z,13.03
2019-02-28T17:47:40.585Z,13.00
2019-02-28T17:49:33.490Z,13.04
2019-02-28T17:50:33.505Z,13.08
2019-02-28T17:52:26.417Z,13.07
2019-02-28T17:53:26.422Z,13.07
2019-02-28T17:55:19.329Z,13.05
2019-02-28T17:56:22.860Z,13.11
2019-02-28T17:58:12.260Z,13.04
2019-02-28T17:59:12.264Z,13.04
2019-02-28T18:01:05.171Z,13.00
2019-02-28T18:02:06.162Z,12.96
2019-02-28T18:03:58.099Z,13.05
2019-02-28T18:04:58.104Z,12.89
2019-02-28T18:06:51.017Z,12.97
2019-02-28T18:07:51.035Z,12.96
2019-02-28T18:09:44.968Z,12.92
2019-02-28T18:10:43.944Z,12.90
2019-02-28T18:12:36.855Z,12.92
2019-02-28T18:13:36.864Z,12.86
2019-02-28T18:15:29.768Z,13.01
2019-02-28T18:16:29.785Z,13.00
2019-02-28T18:18:22.693Z,13.05
2019-02-28T18:19:22.700Z,12.95
2019-02-28T18:21:17.208Z,13.05
2019-02-28T18:22:16.054Z,13.11
2019-02-28T18:24:08.534Z,13.05
2019-02-28T18:25:08.538Z,13.11
2019-02-28T18:27:01.452Z,13.12
2019-02-28T18:28:01.461Z,13.14
2019-02-28T18:29:54.366Z,13.17
2019-02-28T18:30:54.380Z,13.29
2019-02-28T18:32:47.297Z,13.32
2019-02-28T18:33:47.301Z,13.30
2019-02-28T18:35:40.210Z,13.32
2019-02-28T18:36:43.329Z,13.23
2019-02-28T18:38:35.714Z,13.30
2019-02-28T18:39:33.138Z,13.33
2019-02-28T18:41:26.045Z,13.30
2019-02-28T18:42:26.891Z,13.32
2019-02-28T18:44:18.975Z,13.25
2019-02-28T18:45:22.321Z,13.15
2019-02-28T18:47:11.891Z,13.17
2019-02-28T18:48:14.560Z,13.14
2019-02-28T18:50:04.802Z,13.17
2019-02-28T18:51:04.815Z,13.15
2019-02-28T18:52:57.769Z,13.05